Salavat, Russia
Current Conditions -  °F | °C
As of 9:30 AM on Friday 19 Dec 2014 (Local Time) from UWUU Reporting Station
Overcast Overcast  
Wind Chill: 10°   Ceiling: 1200
Heat Index: 21°   Visibility: 6mi
Dew Point: 18°   Wind: 11mph
Humidity: 86%   Direction: 180°S
Pressure: 30.09"   Gusts: 20mph
Location:  53.37°N, 55.92°E
Report Text: UWUU 190430Z 18005G09MPS 9999 OVC012 M06/M08 Q1019 141///54NOSIG RMK QFE753/1005
Loading
Personal Weather Stations






























Interactive Weather Map New forecast layout! Learn more

10-Day Weather Forecast

Advertisements
Track Severe Weather on mobile